createdAt,value
2019-05-19T00:01:49.430Z,16.57
2019-05-19T00:04:19.543Z,17.87
2019-05-19T00:06:49.633Z,18.02
2019-05-19T00:09:19.682Z,18.10
2019-05-19T00:11:53.278Z,17.32
2019-05-19T00:14:23.237Z,16.07
2019-05-19T00:16:53.264Z,17.10
2019-05-19T00:19:26.743Z,23.45
2019-05-19T00:21:54.985Z,26.05
2019-05-19T00:24:25.043Z,25.00
2019-05-19T00:26:55.043Z,21.82
2019-05-19T00:29:26.239Z,23.27
2019-05-19T00:31:56.263Z,19.25
2019-05-19T00:34:26.328Z,20.85
2019-05-19T00:36:56.348Z,23.50
2019-05-19T00:39:26.487Z,16.12
2019-05-19T00:41:56.475Z,18.52
2019-05-19T00:44:26.541Z,19.52
2019-05-19T00:46:56.607Z,19.12
2019-05-19T00:49:40.439Z,18.10
2019-05-19T00:51:58.648Z,18.52
2019-05-19T00:54:28.653Z,18.77
2019-05-19T00:57:01.518Z,19.17
2019-05-19T00:59:31.647Z,16.45
2019-05-19T01:02:01.668Z,16.35
2019-05-19T01:04:31.684Z,15.70
2019-05-19T01:07:01.684Z,17.42
2019-05-19T01:09:31.816Z,17.73
2019-05-19T01:12:02.649Z,16.00
2019-05-19T01:14:32.683Z,17.02
2019-05-19T01:17:02.848Z,18.75
2019-05-19T01:19:33.023Z,19.05
2019-05-19T01:22:03.470Z,18.25
2019-05-19T01:24:33.485Z,20.05
2019-05-19T01:27:03.503Z,16.60
2019-05-19T01:29:34.597Z,17.37
2019-05-19T01:32:04.636Z,21.65
2019-05-19T01:34:34.611Z,17.85
2019-05-19T01:37:04.956Z,16.80
2019-05-19T01:39:35.013Z,15.65
2019-05-19T01:42:06.080Z,15.55
2019-05-19T01:44:36.158Z,17.07
2019-05-19T01:47:06.198Z,16.27
2019-05-19T01:49:36.269Z,19.85
2019-05-19T01:52:06.337Z,17.87
2019-05-19T01:54:36.451Z,17.87
2019-05-19T01:57:06.505Z,16.75
2019-05-19T01:59:36.588Z,18.17
2019-05-19T02:02:06.641Z,20.37
2019-05-19T02:04:36.851Z,15.45
2019-05-19T02:07:06.970Z,19.15
2019-05-19T02:09:37.054Z,21.97
2019-05-19T02:12:07.977Z,16.50
2019-05-19T02:14:38.984Z,20.27
2019-05-19T02:17:09.024Z,19.27
2019-05-19T02:19:39.064Z,20.10
2019-05-19T02:22:09.110Z,17.55
2019-05-19T02:24:39.143Z,19.27
2019-05-19T02:27:09.113Z,17.73
2019-05-19T02:29:39.078Z,18.00
2019-05-19T02:32:09.150Z,17.80
2019-05-19T02:34:39.196Z,17.73
2019-05-19T02:37:09.212Z,20.10
2019-05-19T02:39:39.225Z,20.23
2019-05-19T02:42:10.005Z,16.90
2019-05-19T02:44:41.260Z,19.17
2019-05-19T02:47:13.131Z,16.00
2019-05-19T02:49:45.133Z,17.80
2019-05-19T02:52:16.180Z,17.07
2019-05-19T02:54:46.344Z,17.98
2019-05-19T02:57:16.750Z,19.37
2019-05-19T02:59:47.079Z,17.50
2019-05-19T03:02:17.080Z,15.98
2019-05-19T03:04:47.113Z,18.57
2019-05-19T03:07:17.189Z,16.70
2019-05-19T03:09:47.155Z,18.12
2019-05-19T03:12:17.893Z,18.00
2019-05-19T03:14:47.908Z,17.20
2019-05-19T03:17:17.976Z,16.55
2019-05-19T03:19:47.922Z,21.90
2019-05-19T03:22:19.096Z,15.48
2019-05-19T03:24:49.447Z,17.55
2019-05-19T03:27:19.436Z,21.20
2019-05-19T03:29:51.060Z,17.85
2019-05-19T03:32:31.707Z,16.45
2019-05-19T03:35:01.813Z,17.50
2019-05-19T03:37:31.822Z,17.23
2019-05-19T03:40:03.580Z,17.98
2019-05-19T03:42:33.604Z,17.90
2019-05-19T03:45:04.020Z,16.55
2019-05-19T03:47:35.201Z,18.05
2019-05-19T03:50:06.456Z,16.25
2019-05-19T03:52:36.399Z,18.05
2019-05-19T03:55:06.963Z,20.35
2019-05-19T03:57:36.887Z,18.70
2019-05-19T04:00:08.227Z,20.68
2019-05-19T04:02:38.350Z,22.07
2019-05-19T04:05:09.312Z,23.50
2019-05-19T04:07:39.274Z,23.75
2019-05-19T04:10:09.608Z,21.85
2019-05-19T04:12:40.442Z,21.30
2019-05-19T04:15:10.707Z,23.65
2019-05-19T04:17:40.662Z,21.62
2019-05-19T04:20:10.826Z,22.02
2019-05-19T04:22:40.787Z,24.12
2019-05-19T04:25:10.999Z,22.60
2019-05-19T04:27:43.897Z,22.25
2019-05-19T04:30:14.137Z,23.50
2019-05-19T04:32:44.184Z,18.40
2019-05-19T04:35:14.361Z,22.87
2019-05-19T04:37:44.504Z,22.35
2019-05-19T04:40:14.842Z,21.68
2019-05-19T04:42:44.900Z,22.42
2019-05-19T04:45:15.157Z,19.55
2019-05-19T04:47:45.260Z,19.95
2019-05-19T04:50:15.369Z,19.82
2019-05-19T04:52:45.450Z,24.67
2019-05-19T04:55:15.507Z,23.35
2019-05-19T04:57:45.529Z,21.90
2019-05-19T05:00:15.704Z,23.27
2019-05-19T05:02:45.735Z,25.17
2019-05-19T05:05:15.839Z,21.65
2019-05-19T05:07:45.989Z,22.32
2019-05-19T05:10:16.179Z,23.12
2019-05-19T05:12:46.965Z,20.43
2019-05-19T05:15:17.181Z,25.43
2019-05-19T05:17:47.204Z,27.50
2019-05-19T05:20:18.427Z,31.80
2019-05-19T05:22:48.416Z,26.65
2019-05-19T05:25:18.538Z,27.20
2019-05-19T05:27:48.482Z,25.77
2019-05-19T05:30:18.571Z,26.33
2019-05-19T05:32:48.607Z,25.23
2019-05-19T05:35:18.587Z,26.50
2019-05-19T05:37:48.722Z,25.02
2019-05-19T05:40:18.779Z,31.27
2019-05-19T05:42:48.804Z,28.83
2019-05-19T05:45:18.852Z,30.72
2019-05-19T05:47:48.857Z,30.05
2019-05-19T05:50:18.878Z,30.20
2019-05-19T05:52:48.906Z,30.90
2019-05-19T05:55:19.841Z,26.62
2019-05-19T05:57:50.063Z,32.13
2019-05-19T06:00:20.081Z,32.03
2019-05-19T06:02:50.180Z,37.10
2019-05-19T06:05:20.259Z,35.65
2019-05-19T06:07:50.330Z,38.48
2019-05-19T06:10:20.293Z,41.63
2019-05-19T06:12:51.123Z,34.40
2019-05-19T06:15:21.060Z,39.25
2019-05-19T06:17:51.046Z,36.10
2019-05-19T06:20:20.979Z,40.43
2019-05-19T06:22:56.563Z,38.73
2019-05-19T06:25:22.757Z,43.65
2019-05-19T06:27:53.878Z,41.65
2019-05-19T06:30:23.844Z,39.40
2019-05-19T06:32:55.478Z,39.20
2019-05-19T06:35:25.532Z,41.50
2019-05-19T06:37:55.514Z,36.63
2019-05-19T06:40:25.632Z,38.35
2019-05-19T06:42:55.842Z,44.98
2019-05-19T06:45:25.882Z,39.67
2019-05-19T06:47:55.929Z,41.48
2019-05-19T06:50:25.950Z,46.77
2019-05-19T06:53:11.182Z,43.73
2019-05-19T06:55:27.615Z,39.80
2019-05-19T06:57:57.734Z,45.58
2019-05-19T07:00:27.752Z,42.53
2019-05-19T07:02:57.757Z,41.53
2019-05-19T07:05:27.877Z,45.52
2019-05-19T07:07:57.918Z,52.38
2019-05-19T07:10:27.994Z,44.83
2019-05-19T07:13:02.324Z,42.23
2019-05-19T07:15:32.356Z,46.37
2019-05-19T07:18:02.346Z,45.12
2019-05-19T07:20:32.386Z,42.88
2019-05-19T07:23:02.435Z,40.85
2019-05-19T07:25:32.560Z,37.60
2019-05-19T07:28:02.593Z,41.00
2019-05-19T07:30:32.713Z,41.88
2019-05-19T07:33:02.679Z,35.70
2019-05-19T07:35:32.685Z,37.25
2019-05-19T07:38:02.644Z,38.50
2019-05-19T07:40:32.708Z,39.00
2019-05-19T07:43:02.749Z,35.88
2019-05-19T07:45:32.692Z,33.00
2019-05-19T07:48:02.347Z,35.10
2019-05-19T07:50:32.363Z,32.73
2019-05-19T07:53:02.367Z,31.15
2019-05-19T07:55:32.432Z,29.60
2019-05-19T07:58:02.395Z,28.55
2019-05-19T08:00:33.407Z,25.88
2019-05-19T08:03:03.462Z,28.38
2019-05-19T08:05:33.968Z,27.95
2019-05-19T08:08:04.219Z,24.37
2019-05-19T08:10:34.311Z,27.02
2019-05-19T08:13:05.990Z,25.55
2019-05-19T08:15:36.187Z,20.90
2019-05-19T08:18:07.295Z,17.90
2019-05-19T08:20:37.929Z,22.15
2019-05-19T08:23:07.525Z,22.10
2019-05-19T08:25:37.182Z,19.98
2019-05-19T08:28:09.019Z,24.70
2019-05-19T08:30:38.531Z,21.85
2019-05-19T08:33:08.246Z,22.25
2019-05-19T08:35:37.802Z,29.02
2019-05-19T08:38:07.510Z,26.37
2019-05-19T08:40:37.493Z,20.88
2019-05-19T08:43:07.435Z,22.80
2019-05-19T08:45:37.087Z,29.92
2019-05-19T08:48:06.676Z,27.58
2019-05-19T08:50:36.231Z,21.75
2019-05-19T08:53:06.196Z,19.30
2019-05-19T08:55:36.231Z,19.37
2019-05-19T08:58:05.904Z,24.55
2019-05-19T09:00:38.459Z,20.20
2019-05-19T09:03:07.314Z,23.40
2019-05-19T09:05:36.983Z,21.57
2019-05-19T09:08:06.936Z,20.82
2019-05-19T09:10:36.876Z,19.25
2019-05-19T09:13:06.520Z,19.32
2019-05-19T09:15:36.128Z,17.80
2019-05-19T09:18:06.039Z,20.92
2019-05-19T09:20:36.007Z,17.90
2019-05-19T09:23:05.831Z,20.02
2019-05-19T09:25:35.750Z,20.50
2019-05-19T09:28:05.375Z,17.23
2019-05-19T09:30:35.401Z,16.95
2019-05-19T09:33:05.368Z,17.00
2019-05-19T09:35:35.116Z,35.67
2019-05-19T09:38:05.318Z,33.23
2019-05-19T09:40:35.334Z,23.95
2019-05-19T09:43:05.598Z,20.02
2019-05-19T09:45:35.711Z,15.58
2019-05-19T09:48:05.745Z,16.95
2019-05-19T09:50:35.457Z,19.03
2019-05-19T09:53:05.182Z,17.00
2019-05-19T09:55:35.026Z,18.93
2019-05-19T09:58:04.671Z,18.37
2019-05-19T10:00:34.869Z,16.57
2019-05-19T10:03:04.681Z,20.13
2019-05-19T10:05:34.450Z,16.97
2019-05-19T10:08:04.509Z,17.53
2019-05-19T10:11:12.213Z,16.00
2019-05-19T10:13:42.517Z,15.90
2019-05-19T10:16:12.219Z,14.13
2019-05-19T10:18:41.959Z,16.00
2019-05-19T10:21:11.698Z,13.27
2019-05-19T10:23:42.522Z,13.47
2019-05-19T10:26:12.147Z,12.77
2019-05-19T10:28:41.837Z,16.73
2019-05-19T10:31:11.842Z,12.57
2019-05-19T10:33:41.491Z,11.07
2019-05-19T10:36:11.286Z,11.47
2019-05-19T10:38:40.969Z,11.03
2019-05-19T10:41:10.624Z,11.97
2019-05-19T10:43:41.473Z,10.80
2019-05-19T10:46:11.160Z,9.00
2019-05-19T10:48:40.813Z,12.13
2019-05-19T10:51:10.519Z,7.90
2019-05-19T10:53:40.161Z,8.90
2019-05-19T10:56:09.868Z,8.43
2019-05-19T10:58:40.531Z,10.87
2019-05-19T11:01:10.267Z,10.20
2019-05-19T11:03:39.918Z,9.00
2019-05-19T11:06:09.617Z,24.20
2019-05-19T11:08:39.322Z,9.83
2019-05-19T11:11:09.014Z,7.23
2019-05-19T11:13:38.753Z,9.47
2019-05-19T11:16:08.468Z,12.93
2019-05-19T11:18:38.187Z,7.60
2019-05-19T11:21:07.835Z,10.07
2019-05-19T11:23:37.635Z,14.50
2019-05-19T11:26:07.335Z,9.43
2019-05-19T11:28:36.973Z,9.83
2019-05-19T11:31:06.758Z,10.50
2019-05-19T11:33:36.486Z,8.60
2019-05-19T11:36:06.195Z,8.23
2019-05-19T11:38:35.869Z,11.07
2019-05-19T11:41:05.707Z,10.07
2019-05-19T11:43:35.335Z,8.07
2019-05-19T11:46:04.997Z,12.10
2019-05-19T11:48:34.819Z,10.07
2019-05-19T11:51:07.364Z,8.70
2019-05-19T11:53:37.118Z,13.87
2019-05-19T11:56:10.715Z,13.77
2019-05-19T11:58:38.187Z,10.47
2019-05-19T12:01:08.147Z,14.20
2019-05-19T12:03:38.408Z,16.67
2019-05-19T12:06:08.486Z,12.88
2019-05-19T12:08:38.426Z,11.00
2019-05-19T12:11:08.156Z,9.17
2019-05-19T12:13:38.193Z,11.93
2019-05-19T12:16:08.385Z,10.23
2019-05-19T12:18:39.175Z,11.88
2019-05-19T12:21:09.176Z,15.25
2019-05-19T12:23:39.281Z,18.12
2019-05-19T12:26:22.247Z,16.70
2019-05-19T12:28:40.887Z,16.65
2019-05-19T12:31:10.941Z,16.05
2019-05-19T12:33:51.528Z,11.22
2019-05-19T12:36:12.873Z,14.63
2019-05-19T12:38:42.900Z,12.85
2019-05-19T12:41:12.987Z,12.58
2019-05-19T12:43:42.939Z,21.33
2019-05-19T12:46:16.313Z,19.37
2019-05-19T12:48:44.770Z,15.80
2019-05-19T12:51:14.882Z,18.48
2019-05-19T12:53:45.163Z,15.40
2019-05-19T12:56:14.870Z,9.83
2019-05-19T12:58:44.485Z,6.93
2019-05-19T13:01:14.141Z,6.87
2019-05-19T13:03:43.900Z,6.27
2019-05-19T13:06:13.535Z,10.70
2019-05-19T13:08:43.255Z,6.50
2019-05-19T13:11:12.917Z,8.60
2019-05-19T13:13:42.591Z,7.90
2019-05-19T13:16:12.238Z,10.77
2019-05-19T13:18:42.792Z,12.33
2019-05-19T13:21:12.532Z,10.17
2019-05-19T13:23:42.324Z,11.57
2019-05-19T13:26:12.006Z,8.23
2019-05-19T13:28:41.698Z,6.70
2019-05-19T13:31:11.382Z,6.50
2019-05-19T13:33:41.068Z,8.47
2019-05-19T13:36:10.859Z,12.30
2019-05-19T13:38:40.500Z,6.27
2019-05-19T13:41:10.128Z,7.73
2019-05-19T13:43:39.931Z,6.17
2019-05-19T13:46:09.704Z,8.83
2019-05-19T13:48:39.380Z,7.33
2019-05-19T13:51:09.092Z,6.73
2019-05-19T13:53:39.006Z,4.73
2019-05-19T13:56:08.718Z,5.87
2019-05-19T13:58:38.478Z,4.70
2019-05-19T14:01:08.176Z,6.77
2019-05-19T14:03:37.883Z,5.93
2019-05-19T14:06:07.616Z,4.40
2019-05-19T14:08:37.260Z,7.73
2019-05-19T14:11:06.984Z,5.07
2019-05-19T14:13:36.754Z,4.23
2019-05-19T14:16:06.411Z,7.53
2019-05-19T14:18:36.258Z,12.70
2019-05-19T14:21:05.995Z,6.23
2019-05-19T14:23:35.645Z,6.67
2019-05-19T14:26:05.275Z,4.87
2019-05-19T14:28:34.935Z,5.87
2019-05-19T14:31:04.570Z,4.67
2019-05-19T14:33:34.296Z,7.67
2019-05-19T14:36:04.060Z,4.50
2019-05-19T14:38:33.805Z,8.03
2019-05-19T14:41:03.549Z,4.60
2019-05-19T14:43:33.947Z,3.23
2019-05-19T14:46:03.576Z,4.57
2019-05-19T14:48:34.180Z,4.20
2019-05-19T14:51:03.967Z,5.80
2019-05-19T14:53:33.767Z,5.57
2019-05-19T14:56:03.395Z,2.97
2019-05-19T14:58:33.110Z,2.93
2019-05-19T15:01:02.878Z,6.30
2019-05-19T15:03:32.564Z,2.70
2019-05-19T15:06:03.295Z,2.67
2019-05-19T15:08:33.886Z,4.67
2019-05-19T15:11:03.526Z,6.10
2019-05-19T15:13:33.216Z,3.63
2019-05-19T15:16:03.120Z,6.70
2019-05-19T15:18:32.785Z,5.30
2019-05-19T15:21:02.575Z,5.53
2019-05-19T15:23:32.307Z,7.60
2019-05-19T15:26:01.956Z,4.77
2019-05-19T15:28:31.749Z,4.60
2019-05-19T15:31:01.448Z,6.73
2019-05-19T15:33:37.702Z,5.87
2019-05-19T15:36:02.518Z,10.00
2019-05-19T15:38:32.254Z,9.93
2019-05-19T15:41:02.087Z,9.87
2019-05-19T15:43:31.733Z,6.03
2019-05-19T15:46:01.496Z,10.03
2019-05-19T15:48:31.304Z,8.87
2019-05-19T15:51:01.020Z,15.03
2019-05-19T15:53:30.667Z,9.80
2019-05-19T15:56:00.335Z,8.63
2019-05-19T15:58:29.960Z,11.10
2019-05-19T16:00:59.888Z,12.80
2019-05-19T16:03:29.839Z,10.85
2019-05-19T16:05:59.792Z,11.40
2019-05-19T16:08:29.754Z,14.60
2019-05-19T16:10:59.787Z,13.05
2019-05-19T16:13:29.791Z,13.43
2019-05-19T16:15:59.838Z,14.78
2019-05-19T16:18:29.794Z,12.33
2019-05-19T16:20:59.446Z,7.57
2019-05-19T16:23:29.087Z,7.13
2019-05-19T16:25:59.638Z,8.57
2019-05-19T16:28:30.982Z,9.43
2019-05-19T16:31:00.954Z,9.10
2019-05-19T16:33:30.564Z,9.73
2019-05-19T16:36:00.293Z,5.70
2019-05-19T16:38:29.980Z,9.63
2019-05-19T16:41:00.723Z,6.40
2019-05-19T16:43:30.411Z,8.13
2019-05-19T16:46:00.108Z,13.57
2019-05-19T16:48:29.992Z,7.77
2019-05-19T16:50:59.645Z,6.13
2019-05-19T16:53:29.274Z,4.93
2019-05-19T16:55:58.939Z,4.10
2019-05-19T16:58:28.654Z,4.43
2019-05-19T17:00:58.714Z,4.00
2019-05-19T17:03:28.352Z,5.10
2019-05-19T17:05:57.991Z,5.33
2019-05-19T17:08:27.701Z,5.40
2019-05-19T17:10:57.420Z,5.17
2019-05-19T17:13:27.054Z,3.57
2019-05-19T17:15:56.720Z,5.73
2019-05-19T17:18:26.399Z,6.27
2019-05-19T17:20:56.119Z,6.97
2019-05-19T17:23:25.861Z,4.43
2019-05-19T17:25:55.555Z,4.43
2019-05-19T17:28:26.148Z,6.23
2019-05-19T17:30:55.852Z,7.97
2019-05-19T17:33:25.476Z,5.93
2019-05-19T17:35:55.150Z,11.50
2019-05-19T17:38:24.784Z,12.00
2019-05-19T17:40:54.487Z,7.70
2019-05-19T17:43:25.633Z,13.25
2019-05-19T17:45:55.388Z,5.63
2019-05-19T17:48:27.032Z,6.33
2019-05-19T17:50:56.706Z,8.43
2019-05-19T17:53:26.475Z,5.20
2019-05-19T17:55:58.004Z,7.13
2019-05-19T17:58:29.517Z,9.07
2019-05-19T18:00:59.925Z,10.30
2019-05-19T18:03:30.136Z,14.13
2019-05-19T18:05:59.850Z,7.70
2019-05-19T18:08:29.571Z,5.77
2019-05-19T18:10:59.188Z,9.03
2019-05-19T18:13:29.285Z,8.65
2019-05-19T18:15:59.394Z,16.52
2019-05-19T18:18:31.055Z,18.92
2019-05-19T18:21:01.096Z,7.97
2019-05-19T18:23:31.095Z,11.55
2019-05-19T18:26:01.106Z,9.53
2019-05-19T18:28:31.259Z,11.08
2019-05-19T18:31:01.995Z,9.40
2019-05-19T18:33:32.050Z,12.58
2019-05-19T18:36:02.147Z,14.40
2019-05-19T18:38:32.190Z,14.58
2019-05-19T18:41:02.269Z,12.82
2019-05-19T18:43:32.232Z,16.93
2019-05-19T18:46:02.269Z,13.38
2019-05-19T18:48:32.283Z,12.93
2019-05-19T18:51:02.223Z,12.88
2019-05-19T18:53:32.230Z,17.37
2019-05-19T18:56:02.308Z,16.27
2019-05-19T18:58:32.479Z,18.15
2019-05-19T19:01:02.534Z,16.45
2019-05-19T19:03:32.592Z,16.40
2019-05-19T19:06:02.692Z,17.12
2019-05-19T19:08:32.731Z,18.12
2019-05-19T19:11:02.690Z,18.37
2019-05-19T19:13:32.703Z,17.07
2019-05-19T19:16:02.659Z,18.12
2019-05-19T19:18:32.670Z,32.53
2019-05-19T19:21:03.469Z,22.27
2019-05-19T19:23:33.639Z,19.87
2019-05-19T19:26:03.748Z,21.52
2019-05-19T19:28:33.741Z,14.43
2019-05-19T19:31:05.441Z,15.25
2019-05-19T19:33:35.435Z,12.10
2019-05-19T19:36:06.281Z,13.50
2019-05-19T19:38:36.291Z,11.80
2019-05-19T19:41:06.421Z,12.82
2019-05-19T19:43:36.481Z,11.60
2019-05-19T19:46:06.554Z,13.85
2019-05-19T19:48:37.824Z,13.40
2019-05-19T19:51:07.898Z,16.65
2019-05-19T19:53:38.003Z,19.70
2019-05-19T19:56:08.112Z,14.55
2019-05-19T19:58:38.138Z,13.70
2019-05-19T20:01:10.830Z,17.70
2019-05-19T20:03:40.950Z,18.25
2019-05-19T20:06:11.054Z,16.27
2019-05-19T20:08:41.087Z,16.15
2019-05-19T20:11:13.749Z,15.05
2019-05-19T20:13:43.723Z,16.82
2019-05-19T20:16:14.082Z,15.85
2019-05-19T20:18:44.013Z,22.13
2019-05-19T20:21:14.036Z,25.37
2019-05-19T20:23:43.997Z,28.42
2019-05-19T20:26:13.960Z,25.70
2019-05-19T20:28:44.041Z,22.15
2019-05-19T20:31:15.487Z,34.98
2019-05-19T20:33:45.468Z,39.98
2019-05-19T20:36:15.634Z,18.52
2019-05-19T20:38:45.671Z,19.35
2019-05-19T20:41:15.669Z,16.23
2019-05-19T20:43:45.733Z,15.20
2019-05-19T20:46:15.722Z,16.55
2019-05-19T20:48:45.691Z,17.40
2019-05-19T20:51:15.759Z,16.60
2019-05-19T20:53:45.771Z,21.02
2019-05-19T20:56:15.714Z,15.98
2019-05-19T20:58:45.724Z,15.48
2019-05-19T21:01:15.700Z,14.85
2019-05-19T21:03:45.718Z,19.62
2019-05-19T21:06:15.686Z,18.70
2019-05-19T21:08:45.622Z,18.73
2019-05-19T21:11:15.583Z,17.85
2019-05-19T21:13:45.594Z,20.20
2019-05-19T21:16:16.741Z,15.75
2019-05-19T21:19:04.755Z,14.87
2019-05-19T21:21:34.712Z,19.82
2019-05-19T21:24:04.903Z,19.65
2019-05-19T21:26:34.848Z,18.35
2019-05-19T21:29:06.440Z,22.27
2019-05-19T21:31:36.480Z,20.80
2019-05-19T21:34:06.594Z,20.72
2019-05-19T21:36:36.535Z,18.90
2019-05-19T21:39:06.671Z,19.98
2019-05-19T21:41:36.870Z,19.62
2019-05-19T21:44:06.940Z,21.75
2019-05-19T21:46:37.094Z,23.25
2019-05-19T21:49:07.299Z,20.02
2019-05-19T21:51:37.245Z,24.32
2019-05-19T21:54:07.286Z,17.07
2019-05-19T21:56:37.389Z,17.82
2019-05-19T21:59:07.377Z,16.25
2019-05-19T22:01:37.454Z,18.12
2019-05-19T22:04:07.788Z,17.98
2019-05-19T22:06:39.389Z,16.30
2019-05-19T22:09:09.423Z,18.52
2019-05-19T22:11:39.376Z,18.52
2019-05-19T22:14:09.464Z,18.77
2019-05-19T22:16:39.410Z,20.43
2019-05-19T22:19:09.401Z,20.30
2019-05-19T22:21:39.412Z,22.75
2019-05-19T22:24:09.567Z,19.32
2019-05-19T22:26:39.592Z,18.98
2019-05-19T22:29:09.568Z,19.67
2019-05-19T22:31:39.569Z,18.45
2019-05-19T22:34:09.622Z,16.07
2019-05-19T22:36:39.610Z,15.68
2019-05-19T22:39:09.708Z,18.10
2019-05-19T22:41:39.690Z,16.30
2019-05-19T22:44:09.706Z,18.45
2019-05-19T22:46:39.718Z,19.30
2019-05-19T22:49:09.731Z,17.82
2019-05-19T22:51:39.903Z,22.90
2019-05-19T22:54:09.936Z,19.27
2019-05-19T22:56:39.979Z,21.93
2019-05-19T22:59:19.365Z,17.90
2019-05-19T23:01:51.401Z,20.37
2019-05-19T23:04:13.363Z,20.97
2019-05-19T23:06:43.431Z,17.10
2019-05-19T23:09:13.448Z,18.67
2019-05-19T23:11:43.509Z,19.12
2019-05-19T23:14:13.524Z,22.25
2019-05-19T23:16:43.491Z,18.75
2019-05-19T23:19:13.465Z,19.37
2019-05-19T23:21:43.525Z,16.45
2019-05-19T23:24:13.593Z,15.78
2019-05-19T23:26:43.738Z,16.55
2019-05-19T23:29:13.741Z,16.07
2019-05-19T23:31:43.826Z,16.97
2019-05-19T23:34:13.771Z,19.07
2019-05-19T23:36:43.752Z,20.05
2019-05-19T23:39:14.004Z,21.52
2019-05-19T23:41:44.077Z,20.52
2019-05-19T23:44:14.048Z,19.37
2019-05-19T23:46:44.090Z,16.17
2019-05-19T23:49:14.103Z,17.55
2019-05-19T23:51:44.163Z,16.25
2019-05-19T23:54:15.103Z,17.57
2019-05-19T23:56:45.199Z,19.98
2019-05-19T23:59:15.142Z,19.07
